NDF26PP EGPH-EGKK
Flight info
| Callsign | NDF26PP |
|---|---|
| Flight time | 0h 58m |
| Altitude | 33000 |
| Route | GOSAM P600 FENIK L612 NAVSO DCT KEPAD L151 DISIT |
| Aircraft | A20N/M-SDE2E3FGHIRWXY/LB1 |
Departure
| Time | 2026-04-25 23:06 |
|---|---|
| Airport | Edinburgh Airport (EGPH) |
Arrival
| Time | 2026-04-26 00:04 |
|---|---|
| Airport | London Gatwick Airport (EGKK) |
| Time | Latitude | Longitude | Altitude | Speed | Heading |
|---|---|---|---|---|---|
| 2026-04-25 22:45 | 55.94859 | -3.36608 | 105 ft | 0 kts | 144° |
| 2026-04-25 22:56 | 55.94861 | -3.36610 | 106 ft | 2 kts | 144° |
| 2026-04-25 22:57 | 55.94871 | -3.36623 | 106 ft | 2 kts | 144° |
| 2026-04-25 22:57 | 55.94881 | -3.36636 | 106 ft | 2 kts | 144° |
| 2026-04-25 22:57 | 55.94890 | -3.36648 | 106 ft | 2 kts | 159° |
| 2026-04-25 22:57 | 55.94902 | -3.36654 | 105 ft | 2 kts | 185° |
| 2026-04-25 22:58 | 55.94914 | -3.36649 | 106 ft | 2 kts | 218° |
| 2026-04-25 22:58 | 55.94923 | -3.36635 | 105 ft | 2 kts | 224° |
| 2026-04-25 22:58 | 55.94926 | -3.36630 | 105 ft | 0 kts | 237° |
| 2026-04-25 23:00 | 55.94923 | -3.36637 | 105 ft | 6 kts | 237° |
| 2026-04-25 23:00 | 55.94901 | -3.36724 | 106 ft | 7 kts | 248° |
| 2026-04-25 23:00 | 55.94894 | -3.36767 | 105 ft | 6 kts | 262° |
| 2026-04-25 23:01 | 55.94910 | -3.36809 | 105 ft | 8 kts | 317° |
| 2026-04-25 23:01 | 55.94907 | -3.36955 | 104 ft | 18 kts | 239° |
| 2026-04-25 23:01 | 55.94837 | -3.37155 | 104 ft | 16 kts | 238° |
| 2026-04-25 23:01 | 55.94776 | -3.37336 | 107 ft | 17 kts | 240° |
| 2026-04-25 23:02 | 55.94715 | -3.37519 | 110 ft | 18 kts | 239° |
| 2026-04-25 23:02 | 55.94650 | -3.37714 | 113 ft | 19 kts | 239° |
| 2026-04-25 23:02 | 55.94579 | -3.37918 | 112 ft | 18 kts | 237° |
| 2026-04-25 23:02 | 55.94508 | -3.38128 | 110 ft | 22 kts | 238° |
| 2026-04-25 23:03 | 55.94443 | -3.38317 | 112 ft | 17 kts | 239° |
| 2026-04-25 23:03 | 55.94387 | -3.38486 | 114 ft | 14 kts | 239° |
| 2026-04-25 23:03 | 55.94337 | -3.38632 | 114 ft | 14 kts | 239° |
| 2026-04-25 23:03 | 55.94289 | -3.38776 | 117 ft | 9 kts | 239° |
| 2026-04-25 23:04 | 55.94297 | -3.38868 | 115 ft | 8 kts | 310° |
| 2026-04-25 23:04 | 55.94315 | -3.38892 | 119 ft | 1 kts | 333° |
| 2026-04-25 23:04 | 55.94321 | -3.38898 | 119 ft | 5 kts | 333° |
| 2026-04-25 23:04 | 55.94402 | -3.38951 | 115 ft | 13 kts | 12° |
| 2026-04-25 23:05 | 55.94467 | -3.38812 | 115 ft | 19 kts | 60° |
| 2026-04-25 23:05 | 55.94654 | -3.38260 | 115 ft | 85 kts | 59° |
| 2026-04-25 23:05 | 55.95061 | -3.37051 | 108 ft | 138 kts | 59° |
| 2026-04-25 23:05 | 55.95577 | -3.35500 | 541 ft | 144 kts | 59° |
| 2026-04-25 23:06 | 55.96096 | -3.33972 | 1110 ft | 148 kts | 59° |
| 2026-04-25 23:06 | 55.96761 | -3.32491 | 1638 ft | 158 kts | 47° |
| 2026-04-25 23:06 | 55.97654 | -3.31264 | 2227 ft | 165 kts | 33° |
| 2026-04-25 23:06 | 55.98729 | -3.30349 | 2647 ft | 181 kts | 26° |
| 2026-04-25 23:07 | 55.99946 | -3.29377 | 3039 ft | 201 kts | 20° |
| 2026-04-25 23:07 | 56.01405 | -3.29084 | 3342 ft | 231 kts | 351° |
| 2026-04-25 23:07 | 56.02987 | -3.30116 | 3828 ft | 255 kts | 325° |
| 2026-04-25 23:07 | 56.04277 | -3.32425 | 4474 ft | 267 kts | 297° |
| 2026-04-25 23:08 | 56.04804 | -3.35486 | 5741 ft | 258 kts | 273° |
| 2026-04-25 23:08 | 56.04565 | -3.38657 | 6761 ft | 262 kts | 248° |
| 2026-04-25 23:08 | 56.03622 | -3.41448 | 7643 ft | 267 kts | 234° |
| 2026-04-25 23:08 | 56.02574 | -3.44206 | 8674 ft | 269 kts | 238° |
| 2026-04-25 23:09 | 56.01712 | -3.47171 | 9620 ft | 274 kts | 245° |
| 2026-04-25 23:09 | 56.01034 | -3.50378 | 10555 ft | 279 kts | 251° |
| 2026-04-25 23:09 | 56.00451 | -3.53835 | 11024 ft | 301 kts | 253° |
| 2026-04-25 23:09 | 55.99874 | -3.57746 | 11372 ft | 325 kts | 254° |
| 2026-04-25 23:10 | 55.99339 | -3.61527 | 12024 ft | 332 kts | 255° |
| 2026-04-25 23:10 | 55.98772 | -3.65506 | 12881 ft | 336 kts | 254° |
| 2026-04-25 23:10 | 55.98179 | -3.69597 | 13723 ft | 341 kts | 254° |
| 2026-04-25 23:10 | 55.97574 | -3.73731 | 14509 ft | 345 kts | 254° |
| 2026-04-25 23:11 | 55.96961 | -3.77885 | 15308 ft | 347 kts | 254° |
| 2026-04-25 23:11 | 55.96340 | -3.82073 | 16090 ft | 350 kts | 254° |
| 2026-04-25 23:11 | 55.95720 | -3.86243 | 16843 ft | 353 kts | 255° |
| 2026-04-25 23:11 | 55.95083 | -3.90517 | 17605 ft | 357 kts | 255° |
| 2026-04-25 23:12 | 55.94441 | -3.94818 | 18355 ft | 360 kts | 255° |
| 2026-04-25 23:12 | 55.93701 | -3.99091 | 19091 ft | 361 kts | 246° |
| 2026-04-25 23:12 | 55.92333 | -4.02878 | 19719 ft | 366 kts | 230° |
| 2026-04-25 23:12 | 55.90497 | -4.05989 | 20334 ft | 371 kts | 220° |
| 2026-04-25 23:13 | 55.88413 | -4.08755 | 20965 ft | 375 kts | 216° |
| 2026-04-25 23:13 | 55.86238 | -4.11366 | 21589 ft | 378 kts | 215° |
| 2026-04-25 23:13 | 55.84020 | -4.13963 | 22211 ft | 382 kts | 215° |
| 2026-04-25 23:13 | 55.81796 | -4.16578 | 22821 ft | 385 kts | 215° |
| 2026-04-25 23:14 | 55.79554 | -4.19238 | 23417 ft | 389 kts | 216° |
| 2026-04-25 23:14 | 55.77294 | -4.21819 | 23976 ft | 393 kts | 209° |
| 2026-04-25 23:14 | 55.74738 | -4.23665 | 24502 ft | 398 kts | 200° |
| 2026-04-25 23:14 | 55.72046 | -4.24884 | 24998 ft | 404 kts | 189° |
| 2026-04-25 23:15 | 55.69212 | -4.24901 | 25457 ft | 412 kts | 175° |
| 2026-04-25 23:15 | 55.66409 | -4.23644 | 25929 ft | 419 kts | 162° |
| 2026-04-25 23:15 | 55.64617 | -4.22329 | 26232 ft | 422 kts | 158° |
| 2026-04-25 23:15 | 55.61122 | -4.19144 | 26858 ft | 427 kts | 154° |
| 2026-04-25 23:16 | 55.58514 | -4.16555 | 27317 ft | 430 kts | 153° |
| 2026-04-25 23:16 | 55.56783 | -4.14820 | 27610 ft | 432 kts | 153° |
| 2026-04-25 23:16 | 55.54151 | -4.12198 | 28031 ft | 435 kts | 153° |
| 2026-04-25 23:16 | 55.51503 | -4.09586 | 28449 ft | 437 kts | 154° |
| 2026-04-25 23:17 | 55.48822 | -4.06963 | 28855 ft | 439 kts | 154° |
| 2026-04-25 23:17 | 55.46136 | -4.04348 | 29251 ft | 442 kts | 154° |
| 2026-04-25 23:17 | 55.43455 | -4.01748 | 29542 ft | 446 kts | 154° |
| 2026-04-25 23:17 | 55.40724 | -3.99103 | 29935 ft | 448 kts | 154° |
| 2026-04-25 23:18 | 55.37978 | -3.96447 | 30328 ft | 450 kts | 154° |
| 2026-04-25 23:18 | 55.35225 | -3.93789 | 30658 ft | 452 kts | 154° |
| 2026-04-25 23:18 | 55.32454 | -3.91118 | 31003 ft | 454 kts | 154° |
| 2026-04-25 23:18 | 55.29681 | -3.88447 | 31357 ft | 455 kts | 154° |
| 2026-04-25 23:19 | 55.26928 | -3.85801 | 31768 ft | 455 kts | 154° |
| 2026-04-25 23:19 | 55.24148 | -3.83139 | 32134 ft | 455 kts | 155° |
| 2026-04-25 23:19 | 55.21281 | -3.80794 | 32580 ft | 451 kts | 161° |
| 2026-04-25 23:19 | 55.18334 | -3.78978 | 32998 ft | 448 kts | 164° |
| 2026-04-25 23:20 | 55.15406 | -3.77286 | 33146 ft | 447 kts | 164° |
| 2026-04-25 23:20 | 55.12449 | -3.75572 | 33246 ft | 445 kts | 164° |
| 2026-04-25 23:20 | 55.06561 | -3.72144 | 33260 ft | 445 kts | 164° |
| 2026-04-25 23:21 | 55.00700 | -3.68731 | 33273 ft | 445 kts | 164° |
| 2026-04-25 23:21 | 54.94814 | -3.65313 | 33259 ft | 445 kts | 164° |
| 2026-04-25 23:22 | 54.88954 | -3.61923 | 33266 ft | 446 kts | 164° |
| 2026-04-25 23:23 | 54.80117 | -3.56828 | 33263 ft | 445 kts | 164° |
| 2026-04-25 23:23 | 54.74222 | -3.53443 | 33256 ft | 445 kts | 164° |
| 2026-04-25 23:24 | 54.68375 | -3.50095 | 33240 ft | 445 kts | 164° |
| 2026-04-25 23:24 | 54.62477 | -3.46729 | 33247 ft | 445 kts | 165° |
| 2026-04-25 23:25 | 54.56617 | -3.43394 | 33251 ft | 446 kts | 165° |
| 2026-04-25 23:25 | 54.50715 | -3.40046 | 33252 ft | 446 kts | 165° |
| 2026-04-25 23:26 | 54.44811 | -3.36707 | 33243 ft | 447 kts | 165° |
| 2026-04-25 23:26 | 54.38882 | -3.33363 | 33246 ft | 448 kts | 165° |
| 2026-04-25 23:27 | 54.32978 | -3.30044 | 33250 ft | 449 kts | 165° |
| 2026-04-25 23:27 | 54.27027 | -3.26708 | 33258 ft | 449 kts | 165° |
| 2026-04-25 23:28 | 54.21095 | -3.23394 | 33262 ft | 450 kts | 165° |
| 2026-04-25 23:28 | 54.15134 | -3.20073 | 33247 ft | 450 kts | 165° |
| 2026-04-25 23:29 | 54.09163 | -3.16757 | 33253 ft | 451 kts | 165° |
| 2026-04-25 23:29 | 54.03219 | -3.13466 | 33253 ft | 452 kts | 165° |
| 2026-04-25 23:30 | 53.97223 | -3.10156 | 33254 ft | 452 kts | 165° |
| 2026-04-25 23:30 | 53.91254 | -3.06870 | 33248 ft | 453 kts | 165° |
| 2026-04-25 23:31 | 53.85250 | -3.03576 | 33249 ft | 453 kts | 165° |
| 2026-04-25 23:31 | 53.79235 | -3.00285 | 33242 ft | 454 kts | 165° |
| 2026-04-25 23:32 | 53.73257 | -2.97024 | 33255 ft | 454 kts | 165° |
| 2026-04-25 23:32 | 53.67234 | -2.93749 | 33235 ft | 454 kts | 165° |
| 2026-04-25 23:33 | 53.61200 | -2.90477 | 33236 ft | 455 kts | 165° |
| 2026-04-25 23:33 | 53.55167 | -2.87216 | 33244 ft | 455 kts | 165° |
| 2026-04-25 23:34 | 53.49162 | -2.83980 | 33247 ft | 455 kts | 165° |
| 2026-04-25 23:34 | 53.43145 | -2.80746 | 33253 ft | 455 kts | 165° |
| 2026-04-25 23:35 | 53.37089 | -2.77502 | 33254 ft | 456 kts | 165° |
| 2026-04-25 23:35 | 53.31074 | -2.74289 | 33264 ft | 456 kts | 165° |
| 2026-04-25 23:36 | 53.25027 | -2.71069 | 33264 ft | 455 kts | 165° |
| 2026-04-25 23:36 | 53.18966 | -2.67850 | 33250 ft | 455 kts | 165° |
| 2026-04-25 23:37 | 53.12960 | -2.64671 | 33256 ft | 455 kts | 165° |
| 2026-04-25 23:37 | 53.06906 | -2.61475 | 33255 ft | 455 kts | 165° |
| 2026-04-25 23:38 | 53.00869 | -2.58298 | 33255 ft | 455 kts | 165° |
| 2026-04-25 23:38 | 52.94843 | -2.55136 | 33243 ft | 455 kts | 165° |
| 2026-04-25 23:39 | 52.88789 | -2.51968 | 33266 ft | 456 kts | 165° |
| 2026-04-25 23:39 | 52.82750 | -2.48693 | 33271 ft | 460 kts | 161° |
| 2026-04-25 23:40 | 52.77088 | -2.43681 | 33265 ft | 464 kts | 148° |
| 2026-04-25 23:40 | 52.71759 | -2.37745 | 33257 ft | 466 kts | 148° |
| 2026-04-25 23:41 | 52.66369 | -2.31787 | 33254 ft | 465 kts | 148° |
| 2026-04-25 23:41 | 52.60979 | -2.25870 | 33251 ft | 465 kts | 148° |
| 2026-04-25 23:42 | 52.55582 | -2.19969 | 33252 ft | 465 kts | 149° |
| 2026-04-25 23:42 | 52.50209 | -2.14111 | 33092 ft | 466 kts | 148° |
| 2026-04-25 23:42 | 52.47495 | -2.11160 | 32516 ft | 467 kts | 149° |
| 2026-04-25 23:43 | 52.44771 | -2.08201 | 31631 ft | 471 kts | 149° |
| 2026-04-25 23:43 | 52.42045 | -2.05245 | 30628 ft | 477 kts | 149° |
| 2026-04-25 23:43 | 52.39277 | -2.02246 | 29885 ft | 474 kts | 149° |
| 2026-04-25 23:43 | 52.36550 | -1.99294 | 29411 ft | 465 kts | 149° |
| 2026-04-25 23:44 | 52.33866 | -1.96394 | 28823 ft | 458 kts | 149° |
| 2026-04-25 23:44 | 52.31213 | -1.93535 | 28288 ft | 452 kts | 149° |
| 2026-04-25 23:44 | 52.28637 | -1.90763 | 27692 ft | 447 kts | 149° |
| 2026-04-25 23:44 | 52.26046 | -1.87980 | 27045 ft | 444 kts | 149° |
| 2026-04-25 23:45 | 52.23462 | -1.85208 | 26399 ft | 441 kts | 148° |
| 2026-04-25 23:45 | 52.20908 | -1.82471 | 25797 ft | 437 kts | 148° |
| 2026-04-25 23:45 | 52.18367 | -1.79750 | 25183 ft | 434 kts | 148° |
| 2026-04-25 23:45 | 52.15840 | -1.77050 | 24597 ft | 431 kts | 148° |
| 2026-04-25 23:46 | 52.13329 | -1.74370 | 23999 ft | 429 kts | 148° |
| 2026-04-25 23:46 | 52.10866 | -1.71745 | 23309 ft | 426 kts | 148° |
| 2026-04-25 23:46 | 52.08403 | -1.69123 | 22761 ft | 420 kts | 148° |
| 2026-04-25 23:46 | 52.05961 | -1.66527 | 22175 ft | 415 kts | 148° |
| 2026-04-25 23:47 | 52.03553 | -1.63970 | 21592 ft | 410 kts | 148° |
| 2026-04-25 23:47 | 52.01200 | -1.61476 | 21002 ft | 406 kts | 148° |
| 2026-04-25 23:47 | 51.98836 | -1.58973 | 20432 ft | 403 kts | 148° |
| 2026-04-25 23:47 | 51.96489 | -1.56491 | 19853 ft | 400 kts | 148° |
| 2026-04-25 23:48 | 51.94162 | -1.54034 | 19292 ft | 397 kts | 148° |
| 2026-04-25 23:48 | 51.91854 | -1.51599 | 18683 ft | 396 kts | 148° |
| 2026-04-25 23:48 | 51.89553 | -1.49176 | 18122 ft | 391 kts | 148° |
| 2026-04-25 23:48 | 51.87309 | -1.46814 | 17556 ft | 388 kts | 148° |
| 2026-04-25 23:49 | 51.85047 | -1.44438 | 16964 ft | 384 kts | 148° |
| 2026-04-25 23:49 | 51.82810 | -1.42090 | 16390 ft | 381 kts | 148° |
| 2026-04-25 23:49 | 51.80593 | -1.39765 | 15810 ft | 378 kts | 148° |
| 2026-04-25 23:49 | 51.78407 | -1.37475 | 15575 ft | 367 kts | 148° |
| 2026-04-25 23:50 | 51.76292 | -1.35262 | 15472 ft | 368 kts | 148° |
| 2026-04-25 23:50 | 51.74133 | -1.33007 | 15373 ft | 369 kts | 148° |
| 2026-04-25 23:50 | 51.71982 | -1.30763 | 15273 ft | 367 kts | 148° |
| 2026-04-25 23:50 | 51.69839 | -1.28528 | 15178 ft | 366 kts | 148° |
| 2026-04-25 23:51 | 51.67700 | -1.26300 | 15073 ft | 366 kts | 148° |
| 2026-04-25 23:51 | 51.65562 | -1.24077 | 14968 ft | 365 kts | 148° |
| 2026-04-25 23:51 | 51.63436 | -1.21868 | 14876 ft | 364 kts | 148° |
| 2026-04-25 23:51 | 51.61307 | -1.19659 | 14782 ft | 363 kts | 148° |
| 2026-04-25 23:52 | 51.59183 | -1.17456 | 14605 ft | 362 kts | 148° |
| 2026-04-25 23:52 | 51.57099 | -1.15298 | 14306 ft | 358 kts | 148° |
| 2026-04-25 23:52 | 51.55009 | -1.13136 | 13827 ft | 355 kts | 148° |
| 2026-04-25 23:52 | 51.52934 | -1.10993 | 13273 ft | 353 kts | 148° |
| 2026-04-25 23:53 | 51.50875 | -1.08868 | 12731 ft | 350 kts | 148° |
| 2026-04-25 23:53 | 51.48831 | -1.06761 | 12196 ft | 347 kts | 148° |
| 2026-04-25 23:53 | 51.46824 | -1.04695 | 11673 ft | 345 kts | 148° |
| 2026-04-25 23:53 | 51.44810 | -1.02622 | 11161 ft | 342 kts | 148° |
| 2026-04-25 23:54 | 51.42809 | -1.00566 | 10694 ft | 339 kts | 148° |
| 2026-04-25 23:54 | 51.40858 | -0.98562 | 10550 ft | 325 kts | 148° |
| 2026-04-25 23:54 | 51.38990 | -0.96645 | 10407 ft | 311 kts | 148° |
| 2026-04-25 23:54 | 51.37221 | -0.94831 | 10266 ft | 300 kts | 148° |
| 2026-04-25 23:55 | 51.35480 | -0.93048 | 9985 ft | 294 kts | 148° |
| 2026-04-25 23:55 | 51.33762 | -0.91291 | 9603 ft | 291 kts | 148° |
| 2026-04-25 23:55 | 51.32059 | -0.89552 | 9235 ft | 288 kts | 148° |
| 2026-04-25 23:55 | 51.30372 | -0.87830 | 8849 ft | 286 kts | 148° |
| 2026-04-25 23:56 | 51.28718 | -0.86143 | 8478 ft | 284 kts | 148° |
| 2026-04-25 23:56 | 51.27059 | -0.84452 | 8104 ft | 282 kts | 148° |
| 2026-04-25 23:56 | 51.25408 | -0.82772 | 7735 ft | 280 kts | 148° |
| 2026-04-25 23:56 | 51.23636 | -0.81521 | 7354 ft | 277 kts | 163° |
| 2026-04-25 23:57 | 51.21939 | -0.80191 | 6987 ft | 275 kts | 146° |
| 2026-04-25 23:57 | 51.20405 | -0.78374 | 6626 ft | 273 kts | 139° |
| 2026-04-25 23:57 | 51.18993 | -0.76347 | 6251 ft | 271 kts | 137° |
| 2026-04-25 23:57 | 51.17597 | -0.74332 | 5881 ft | 269 kts | 137° |
| 2026-04-25 23:58 | 51.16203 | -0.72342 | 5501 ft | 268 kts | 137° |
| 2026-04-25 23:58 | 51.14830 | -0.70404 | 5158 ft | 266 kts | 137° |
| 2026-04-25 23:58 | 51.13455 | -0.68441 | 4789 ft | 264 kts | 136° |
| 2026-04-25 23:58 | 51.12120 | -0.66448 | 4414 ft | 262 kts | 134° |
| 2026-04-25 23:59 | 51.11013 | -0.64189 | 4181 ft | 253 kts | 121° |
| 2026-04-25 23:59 | 51.10101 | -0.61858 | 4082 ft | 242 kts | 121° |
| 2026-04-25 23:59 | 51.09268 | -0.59626 | 3973 ft | 231 kts | 110° |
| 2026-04-25 23:59 | 51.09138 | -0.57164 | 3744 ft | 224 kts | 79° |
| 2026-04-26 00:00 | 51.09487 | -0.54752 | 3467 ft | 223 kts | 76° |
| 2026-04-26 00:00 | 51.09871 | -0.52392 | 3177 ft | 223 kts | 76° |
| 2026-04-26 00:00 | 51.10252 | -0.50036 | 3119 ft | 221 kts | 76° |
| 2026-04-26 00:00 | 51.10633 | -0.47642 | 3225 ft | 223 kts | 76° |
| 2026-04-26 00:01 | 51.11021 | -0.45241 | 3285 ft | 225 kts | 70° |
| 2026-04-26 00:01 | 51.11948 | -0.43272 | 3191 ft | 225 kts | 41° |
| 2026-04-26 00:01 | 51.12700 | -0.42133 | 3127 ft | 224 kts | 54° |
| 2026-04-26 00:01 | 51.13307 | -0.39059 | 3053 ft | 223 kts | 86° |
| 2026-04-26 00:02 | 51.13319 | -0.36585 | 2796 ft | 223 kts | 97° |
| 2026-04-26 00:02 | 51.13134 | -0.34975 | 2410 ft | 223 kts | 101° |
| 2026-04-26 00:02 | 51.12886 | -0.31728 | 1748 ft | 214 kts | 86° |
| 2026-04-26 00:02 | 51.13160 | -0.29536 | 1521 ft | 190 kts | 73° |
| 2026-04-26 00:03 | 51.13412 | -0.28262 | 1518 ft | 168 kts | 73° |
| 2026-04-26 00:03 | 51.13727 | -0.26632 | 1385 ft | 146 kts | 75° |
| 2026-04-26 00:03 | 51.13970 | -0.25064 | 1063 ft | 146 kts | 77° |
| 2026-04-26 00:03 | 51.14207 | -0.23505 | 686 ft | 143 kts | 77° |
| 2026-04-26 00:04 | 51.14420 | -0.21981 | 404 ft | 140 kts | 78° |
| 2026-04-26 00:04 | 51.14615 | -0.20467 | 266 ft | 141 kts | 77° |
| 2026-04-26 00:04 | 51.14825 | -0.19003 | 216 ft | 112 kts | 77° |
| 2026-04-26 00:04 | 51.14905 | -0.18430 | 210 ft | 33 kts | 77° |
| 2026-04-26 00:05 | 51.14952 | -0.18095 | 209 ft | 27 kts | 75° |
| 2026-04-26 00:05 | 51.15010 | -0.17903 | 219 ft | 0 kts | 56° |
| 2026-04-26 00:05 | 51.15037 | -0.17842 | 216 ft | 12 kts | 53° |
| 2026-04-26 00:05 | 51.15081 | -0.17765 | 210 ft | 10 kts | 23° |
| 2026-04-26 00:06 | 51.15169 | -0.17774 | 210 ft | 15 kts | 351° |
| 2026-04-26 00:06 | 51.15252 | -0.17767 | 209 ft | 13 kts | 36° |
| 2026-04-26 00:06 | 51.15277 | -0.17624 | 211 ft | 12 kts | 78° |
| 2026-04-26 00:06 | 51.15295 | -0.17480 | 207 ft | 9 kts | 78° |
| 2026-04-26 00:07 | 51.15321 | -0.17372 | 211 ft | 12 kts | 44° |
| 2026-04-26 00:07 | 51.15407 | -0.17386 | 215 ft | 14 kts | 341° |
| 2026-04-26 00:07 | 51.15514 | -0.17432 | 214 ft | 17 kts | 347° |
| 2026-04-26 00:07 | 51.15642 | -0.17475 | 210 ft | 18 kts | 348° |
| 2026-04-26 00:08 | 51.15726 | -0.17503 | 208 ft | 11 kts | 355° |
| 2026-04-26 00:08 | 51.15807 | -0.17507 | 204 ft | 8 kts | 346° |
| 2026-04-26 00:08 | 51.15837 | -0.17518 | 204 ft | 4 kts | 348° |
| 2026-04-26 00:08 | 51.15852 | -0.17523 | 213 ft | 1 kts | 348° |
| 2026-04-26 00:09 | 51.15859 | -0.17526 | 204 ft | 0 kts | 348° |